Terminal Aerodrome Forecast
Issued by NWS

Home | Current Version | Previous Version | Text Only | Print | Product List | Glossary On
Versions: 1 2 3 4 5 6 7 8 9 10 11 12 13 14 15 16 17 18 19 20 21
000
FTUS43 KDTX 281954 AAA
TAFYIP
TAF AMD
KYIP 281954Z 2820/2918 07008KT 6SM -SHRA SCT020 OVC060
      TEMPO 2820/2822 4SM -SHRA BKN050
     FM290200 03008KT 6SM -SHRA OVC035
     FM290800 03010KT 3SM -SHRA BR OVC012
     FM291400 03012KT P6SM -SHRA OVC012=

USA.gov is the U.S. government's official web portal to all federal, state and local government web resources and services.